sensor_id;sensor_type;location;lat;lon;timestamp;temperature;humidity
38854;DHT22;24606;51.992;4.198;2023-11-21T00:02:32;16.70;99.90
38854;DHT22;24606;51.992;4.198;2023-11-21T00:07:34;16.00;99.90
38854;DHT22;24606;51.992;4.198;2023-11-21T00:12:38;16.60;99.90
38854;DHT22;24606;51.992;4.198;2023-11-21T00:17:42;16.80;99.90
38854;DHT22;24606;51.992;4.198;2023-11-21T00:22:44;16.60;99.90
38854;DHT22;24606;51.992;4.198;2023-11-21T00:27:47;16.90;99.90
38854;DHT22;24606;51.992;4.198;2023-11-21T00:32:49;16.00;99.90
38854;DHT22;24606;51.992;4.198;2023-11-21T00:37:50;15.30;99.90
38854;DHT22;24606;51.992;4.198;2023-11-21T00:42:54;15.80;99.90
38854;DHT22;24606;51.992;4.198;2023-11-21T00:47:56;15.50;99.90
38854;DHT22;24606;51.992;4.198;2023-11-21T00:52:58;16.20;99.90
38854;DHT22;24606;51.992;4.198;2023-11-21T00:58:02;16.00;99.90
38854;DHT22;24606;51.992;4.198;2023-11-21T01:03:05;16.40;99.90
38854;DHT22;24606;51.992;4.198;2023-11-21T01:08:08;16.80;99.90
38854;DHT22;24606;51.992;4.198;2023-11-21T01:13:12;17.00;99.90
38854;DHT22;24606;51.992;4.198;2023-11-21T01:18:15;17.10;99.90
38854;DHT22;24606;51.992;4.198;2023-11-21T01:23:17;17.20;99.90
38854;DHT22;24606;51.992;4.198;2023-11-21T01:28:20;17.10;99.90
38854;DHT22;24606;51.992;4.198;2023-11-21T01:33:22;17.20;99.90
38854;DHT22;24606;51.992;4.198;2023-11-21T01:38:25;17.20;99.90
38854;DHT22;24606;51.992;4.198;2023-11-21T01:43:29;17.30;99.90
38854;DHT22;24606;51.992;4.198;2023-11-21T01:48:31;17.30;99.90
38854;DHT22;24606;51.992;4.198;2023-11-21T01:53:34;17.10;99.80
38854;DHT22;24606;51.992;4.198;2023-11-21T01:58:38;17.10;99.90
38854;DHT22;24606;51.992;4.198;2023-11-21T02:03:40;17.30;99.90
38854;DHT22;24606;51.992;4.198;2023-11-21T02:08:43;17.40;99.90
38854;DHT22;24606;51.992;4.198;2023-11-21T02:13:46;17.30;99.90
38854;DHT22;24606;51.992;4.198;2023-11-21T02:18:51;17.30;99.90
38854;DHT22;24606;51.992;4.198;2023-11-21T02:23:54;17.30;99.90
38854;DHT22;24606;51.992;4.198;2023-11-21T02:28:56;17.40;99.90
38854;DHT22;24606;51.992;4.198;2023-11-21T02:33:59;17.40;99.90
38854;DHT22;24606;51.992;4.198;2023-11-21T02:39:02;17.40;99.80
38854;DHT22;24606;51.992;4.198;2023-11-21T02:44:04;17.40;99.90
38854;DHT22;24606;51.992;4.198;2023-11-21T02:49:07;17.50;99.80
38854;DHT22;24606;51.992;4.198;2023-11-21T02:54:12;17.30;99.90
38854;DHT22;24606;51.992;4.198;2023-11-21T02:59:13;17.30;99.80
38854;DHT22;24606;51.992;4.198;2023-11-21T03:04:16;17.40;99.80
38854;DHT22;24606;51.992;4.198;2023-11-21T03:09:19;17.40;99.60
38854;DHT22;24606;51.992;4.198;2023-11-21T03:14:21;17.40;99.70
38854;DHT22;24606;51.992;4.198;2023-11-21T03:19:23;17.50;99.60
38854;DHT22;24606;51.992;4.198;2023-11-21T03:24:26;17.50;99.50
38854;DHT22;24606;51.992;4.198;2023-11-21T03:29:28;17.50;99.30
38854;DHT22;24606;51.992;4.198;2023-11-21T03:34:31;17.50;99.40
38854;DHT22;24606;51.992;4.198;2023-11-21T03:39:34;17.50;99.40
38854;DHT22;24606;51.992;4.198;2023-11-21T03:44:36;17.50;99.30
38854;DHT22;24606;51.992;4.198;2023-11-21T03:49:38;17.50;99.30
38854;DHT22;24606;51.992;4.198;2023-11-21T03:54:41;17.50;99.40
38854;DHT22;24606;51.992;4.198;2023-11-21T04:15:30;17.10;99.80
38854;DHT22;24606;51.992;4.198;2023-11-21T04:20:32;17.10;99.90
38854;DHT22;24606;51.992;4.198;2023-11-21T04:25:33;17.20;99.90
38854;DHT22;24606;51.992;4.198;2023-11-21T04:30:36;17.20;99.90
38854;DHT22;24606;51.992;4.198;2023-11-21T04:35:40;17.20;99.90
38854;DHT22;24606;51.992;4.198;2023-11-21T04:40:41;17.20;99.90
38854;DHT22;24606;51.992;4.198;2023-11-21T04:45:45;17.20;99.90
38854;DHT22;24606;51.992;4.198;2023-11-21T04:50:46;17.30;99.90
38854;DHT22;24606;51.992;4.198;2023-11-21T04:55:48;17.40;99.90
38854;DHT22;24606;51.992;4.198;2023-11-21T05:00:51;17.10;99.90
38854;DHT22;24606;51.992;4.198;2023-11-21T05:05:53;16.30;99.90
38854;DHT22;24606;51.992;4.198;2023-11-21T05:10:56;16.10;99.90
38854;DHT22;24606;51.992;4.198;2023-11-21T05:15:59;16.60;99.90
38854;DHT22;24606;51.992;4.198;2023-11-21T05:21:04;17.00;99.90
38854;DHT22;24606;51.992;4.198;2023-11-21T05:26:06;17.20;99.90
38854;DHT22;24606;51.992;4.198;2023-11-21T05:31:10;17.10;99.90
38854;DHT22;24606;51.992;4.198;2023-11-21T05:36:12;17.20;99.90
38854;DHT22;24606;51.992;4.198;2023-11-21T05:41:13;17.30;99.90
38854;DHT22;24606;51.992;4.198;2023-11-21T05:46:18;17.40;99.90
38854;DHT22;24606;51.992;4.198;2023-11-21T05:51:19;17.40;99.90
38854;DHT22;24606;51.992;4.198;2023-11-21T05:56:21;17.40;99.90
38854;DHT22;24606;51.992;4.198;2023-11-21T06:01:24;17.40;99.90
38854;DHT22;24606;51.992;4.198;2023-11-21T06:06:28;17.30;99.90
38854;DHT22;24606;51.992;4.198;2023-11-21T06:11:31;17.60;99.80
38854;DHT22;24606;51.992;4.198;2023-11-21T06:16:35;17.30;99.90
38854;DHT22;24606;51.992;4.198;2023-11-21T06:21:37;17.20;99.90
38854;DHT22;24606;51.992;4.198;2023-11-21T06:26:39;17.20;99.90
38854;DHT22;24606;51.992;4.198;2023-11-21T06:31:42;17.10;99.90
38854;DHT22;24606;51.992;4.198;2023-11-21T06:36:44;16.90;99.90
38854;DHT22;24606;51.992;4.198;2023-11-21T06:41:46;16.70;99.90
38854;DHT22;24606;51.992;4.198;2023-11-21T06:46:52;16.00;99.90
38854;DHT22;24606;51.992;4.198;2023-11-21T06:51:53;15.90;99.90
38854;DHT22;24606;51.992;4.198;2023-11-21T06:56:56;16.00;99.90
38854;DHT22;24606;51.992;4.198;2023-11-21T07:02:00;16.80;99.90
38854;DHT22;24606;51.992;4.198;2023-11-21T07:07:02;17.00;99.90
38854;DHT22;24606;51.992;4.198;2023-11-21T07:12:04;17.10;99.90
38854;DHT22;24606;51.992;4.198;2023-11-21T07:17:09;16.70;99.90
38854;DHT22;24606;51.992;4.198;2023-11-21T07:22:12;16.80;99.90
38854;DHT22;24606;51.992;4.198;2023-11-21T07:27:14;16.60;99.90
38854;DHT22;24606;51.992;4.198;2023-11-21T07:32:17;16.30;99.90
38854;DHT22;24606;51.992;4.198;2023-11-21T07:37:19;16.20;99.90
38854;DHT22;24606;51.992;4.198;2023-11-21T07:42:21;16.30;99.90
38854;DHT22;24606;51.992;4.198;2023-11-21T07:47:24;16.10;99.90
38854;DHT22;24606;51.992;4.198;2023-11-21T07:52:27;15.90;99.90
38854;DHT22;24606;51.992;4.198;2023-11-21T07:57:29;16.10;99.90
38854;DHT22;24606;51.992;4.198;2023-11-21T08:02:32;15.80;99.90
38854;DHT22;24606;51.992;4.198;2023-11-21T08:07:35;15.80;99.90
38854;DHT22;24606;51.992;4.198;2023-11-21T08:12:36;15.80;99.90
38854;DHT22;24606;51.992;4.198;2023-11-21T08:17:40;15.90;99.90
38854;DHT22;24606;51.992;4.198;2023-11-21T08:22:42;16.20;99.90
38854;DHT22;24606;51.992;4.198;2023-11-21T08:27:44;16.30;99.90
38854;DHT22;24606;51.992;4.198;2023-11-21T08:32:47;16.20;99.90
38854;DHT22;24606;51.992;4.198;2023-11-21T08:37:51;16.20;99.90
38854;DHT22;24606;51.992;4.198;2023-11-21T08:42:53;16.20;99.90
38854;DHT22;24606;51.992;4.198;2023-11-21T08:47:56;16.70;99.90
38854;DHT22;24606;51.992;4.198;2023-11-21T08:52:58;16.40;99.90
38854;DHT22;24606;51.992;4.198;2023-11-21T08:58:00;16.20;99.90
38854;DHT22;24606;51.992;4.198;2023-11-21T09:03:04;16.00;99.90
38854;DHT22;24606;51.992;4.198;2023-11-21T09:08:09;16.00;99.90
38854;DHT22;24606;51.992;4.198;2023-11-21T09:13:11;15.70;99.90
38854;DHT22;24606;51.992;4.198;2023-11-21T09:18:14;16.00;99.90
38854;DHT22;24606;51.992;4.198;2023-11-21T09:23:16;16.10;99.90
38854;DHT22;24606;51.992;4.198;2023-11-21T09:28:18;16.10;99.90
38854;DHT22;24606;51.992;4.198;2023-11-21T09:33:21;15.50;99.90
38854;DHT22;24606;51.992;4.198;2023-11-21T09:38:25;15.80;99.90
38854;DHT22;24606;51.992;4.198;2023-11-21T09:43:30;16.10;99.90
38854;DHT22;24606;51.992;4.198;2023-11-21T09:48:35;15.20;99.90
38854;DHT22;24606;51.992;4.198;2023-11-21T09:53:40;14.50;99.90
38854;DHT22;24606;51.992;4.198;2023-11-21T09:58:44;15.10;99.90
38854;DHT22;24606;51.992;4.198;2023-11-21T10:03:47;15.60;99.90
38854;DHT22;24606;51.992;4.198;2023-11-21T10:08:50;16.20;99.90
38854;DHT22;24606;51.992;4.198;2023-11-21T10:13:54;16.00;99.90
38854;DHT22;24606;51.992;4.198;2023-11-21T10:18:59;16.00;99.90
38854;DHT22;24606;51.992;4.198;2023-11-21T10:24:01;16.30;99.90
38854;DHT22;24606;51.992;4.198;2023-11-21T10:29:03;16.10;99.90
38854;DHT22;24606;51.992;4.198;2023-11-21T10:34:14;15.90;99.90
38854;DHT22;24606;51.992;4.198;2023-11-21T10:39:17;15.70;99.90
38854;DHT22;24606;51.992;4.198;2023-11-21T10:44:19;15.90;99.90
38854;DHT22;24606;51.992;4.198;2023-11-21T10:49:25;15.70;99.90
38854;DHT22;24606;51.992;4.198;2023-11-21T10:54:27;16.30;99.90
38854;DHT22;24606;51.992;4.198;2023-11-21T10:59:30;16.50;99.90
38854;DHT22;24606;51.992;4.198;2023-11-21T11:04:34;16.20;99.90
38854;DHT22;24606;51.992;4.198;2023-11-21T11:09:38;16.30;99.90
38854;DHT22;24606;51.992;4.198;2023-11-21T11:14:41;16.70;99.90
38854;DHT22;24606;51.992;4.198;2023-11-21T11:19:46;16.90;99.90
38854;DHT22;24606;51.992;4.198;2023-11-21T11:25:06;17.00;99.90
38854;DHT22;24606;51.992;4.198;2023-11-21T11:30:19;16.90;99.90
38854;DHT22;24606;51.992;4.198;2023-11-21T11:35:31;16.70;99.90
38854;DHT22;24606;51.992;4.198;2023-11-21T11:40:41;17.10;99.90
38854;DHT22;24606;51.992;4.198;2023-11-21T11:45:46;17.10;99.90
38854;DHT22;24606;51.992;4.198;2023-11-21T11:51:04;17.30;99.90
38854;DHT22;24606;51.992;4.198;2023-11-21T11:56:26;17.50;99.90
38854;DHT22;24606;51.992;4.198;2023-11-21T12:01:29;17.50;99.90
38854;DHT22;24606;51.992;4.198;2023-11-21T12:06:35;17.30;99.90
38854;DHT22;24606;51.992;4.198;2023-11-21T12:11:37;17.60;99.90
38854;DHT22;24606;51.992;4.198;2023-11-21T12:16:39;17.80;99.90
38854;DHT22;24606;51.992;4.198;2023-11-21T12:21:42;17.40;99.90
38854;DHT22;24606;51.992;4.198;2023-11-21T12:26:44;17.60;99.90
38854;DHT22;24606;51.992;4.198;2023-11-21T12:31:49;18.00;99.90
38854;DHT22;24606;51.992;4.198;2023-11-21T12:36:53;18.00;99.90
38854;DHT22;24606;51.992;4.198;2023-11-21T12:41:55;18.10;99.60
38854;DHT22;24606;51.992;4.198;2023-11-21T12:46:57;18.00;99.90
38854;DHT22;24606;51.992;4.198;2023-11-21T12:52:00;18.10;99.90
38854;DHT22;24606;51.992;4.198;2023-11-21T12:57:04;18.20;99.60
38854;DHT22;24606;51.992;4.198;2023-11-21T13:02:08;18.00;99.60
38854;DHT22;24606;51.992;4.198;2023-11-21T13:07:12;18.30;99.20
38854;DHT22;24606;51.992;4.198;2023-11-21T13:12:15;17.80;95.70
38854;DHT22;24606;51.992;4.198;2023-11-21T13:17:18;17.60;99.30
38854;DHT22;24606;51.992;4.198;2023-11-21T13:22:24;17.40;98.00
38854;DHT22;24606;51.992;4.198;2023-11-21T13:27:26;17.30;99.90
38854;DHT22;24606;51.992;4.198;2023-11-21T13:32:28;17.70;99.10
38854;DHT22;24606;51.992;4.198;2023-11-21T13:37:31;17.90;99.20
38854;DHT22;24606;51.992;4.198;2023-11-21T13:42:33;18.00;99.30
38854;DHT22;24606;51.992;4.198;2023-11-21T13:47:34;18.30;98.50
38854;DHT22;24606;51.992;4.198;2023-11-21T13:52:39;17.90;98.00
38854;DHT22;24606;51.992;4.198;2023-11-21T13:57:41;17.90;99.20
38854;DHT22;24606;51.992;4.198;2023-11-21T14:02:45;18.10;98.00
38854;DHT22;24606;51.992;4.198;2023-11-21T14:07:50;17.80;98.30
38854;DHT22;24606;51.992;4.198;2023-11-21T14:12:52;18.10;99.80
38854;DHT22;24606;51.992;4.198;2023-11-21T14:17:54;18.20;98.00
38854;DHT22;24606;51.992;4.198;2023-11-21T14:22:57;18.30;98.30
38854;DHT22;24606;51.992;4.198;2023-11-21T14:27:59;18.30;98.20
38854;DHT22;24606;51.992;4.198;2023-11-21T14:33:01;18.50;98.80
38854;DHT22;24606;51.992;4.198;2023-11-21T14:38:06;18.60;98.00
38854;DHT22;24606;51.992;4.198;2023-11-21T14:43:07;18.70;98.40
38854;DHT22;24606;51.992;4.198;2023-11-21T14:48:09;18.60;98.50
38854;DHT22;24606;51.992;4.198;2023-11-21T14:53:17;18.50;97.00
38854;DHT22;24606;51.992;4.198;2023-11-21T14:58:39;18.80;98.20
38854;DHT22;24606;51.992;4.198;2023-11-21T15:03:41;18.70;97.90
38854;DHT22;24606;51.992;4.198;2023-11-21T15:08:52;18.80;98.20
38854;DHT22;24606;51.992;4.198;2023-11-21T15:14:00;18.60;97.40
38854;DHT22;24606;51.992;4.198;2023-11-21T15:19:07;18.80;98.00
38854;DHT22;24606;51.992;4.198;2023-11-21T15:24:11;18.80;97.90
38854;DHT22;24606;51.992;4.198;2023-11-21T15:29:13;18.50;97.70
38854;DHT22;24606;51.992;4.198;2023-11-21T15:34:15;18.70;98.30
38854;DHT22;24606;51.992;4.198;2023-11-21T15:39:19;18.60;97.80
38854;DHT22;24606;51.992;4.198;2023-11-21T15:44:22;18.80;97.90
38854;DHT22;24606;51.992;4.198;2023-11-21T15:49:25;18.60;98.40
38854;DHT22;24606;51.992;4.198;2023-11-21T15:54:30;18.70;98.20
38854;DHT22;24606;51.992;4.198;2023-11-21T15:59:32;18.80;98.10
38854;DHT22;24606;51.992;4.198;2023-11-21T16:04:34;18.20;98.70
38854;DHT22;24606;51.992;4.198;2023-11-21T16:09:38;18.50;98.70
38854;DHT22;24606;51.992;4.198;2023-11-21T16:14:42;18.20;97.90
38854;DHT22;24606;51.992;4.198;2023-11-21T16:19:45;18.40;98.20
38854;DHT22;24606;51.992;4.198;2023-11-21T16:24:49;18.50;99.00
38854;DHT22;24606;51.992;4.198;2023-11-21T16:29:51;18.30;97.40
38854;DHT22;24606;51.992;4.198;2023-11-21T16:34:52;18.10;97.40
38854;DHT22;24606;51.992;4.198;2023-11-21T16:39:56;17.90;98.90
38854;DHT22;24606;51.992;4.198;2023-11-21T16:44:59;17.30;98.40
38854;DHT22;24606;51.992;4.198;2023-11-21T16:50:00;17.60;99.90
38854;DHT22;24606;51.992;4.198;2023-11-21T16:55:04;17.30;99.70
38854;DHT22;24606;51.992;4.198;2023-11-21T17:00:10;17.60;99.70
38854;DHT22;24606;51.992;4.198;2023-11-21T17:05:13;17.60;98.90
38854;DHT22;24606;51.992;4.198;2023-11-21T17:10:16;17.20;99.90
38854;DHT22;24606;51.992;4.198;2023-11-21T17:15:21;16.70;98.70
38854;DHT22;24606;51.992;4.198;2023-11-21T17:20:23;17.50;99.90
38854;DHT22;24606;51.992;4.198;2023-11-21T17:25:28;16.80;97.80
38854;DHT22;24606;51.992;4.198;2023-11-21T17:30:30;16.50;99.90
38854;DHT22;24606;51.992;4.198;2023-11-21T17:35:33;16.80;99.90
38854;DHT22;24606;51.992;4.198;2023-11-21T17:40:36;16.60;99.90
38854;DHT22;24606;51.992;4.198;2023-11-21T17:45:40;16.90;99.90
38854;DHT22;24606;51.992;4.198;2023-11-21T17:50:42;17.20;99.90
38854;DHT22;24606;51.992;4.198;2023-11-21T17:55:45;17.80;99.90
38854;DHT22;24606;51.992;4.198;2023-11-21T18:00:47;18.00;99.90
38854;DHT22;24606;51.992;4.198;2023-11-21T18:05:49;18.00;99.90
38854;DHT22;24606;51.992;4.198;2023-11-21T18:10:52;17.90;99.30
38854;DHT22;24606;51.992;4.198;2023-11-21T18:15:54;17.20;99.90
38854;DHT22;24606;51.992;4.198;2023-11-21T18:20:56;17.30;99.90
38854;DHT22;24606;51.992;4.198;2023-11-21T18:25:59;17.60;99.90
38854;DHT22;24606;51.992;4.198;2023-11-21T18:31:05;18.00;99.90
38854;DHT22;24606;51.992;4.198;2023-11-21T18:36:07;17.90;99.90
38854;DHT22;24606;51.992;4.198;2023-11-21T18:41:10;17.90;99.90
38854;DHT22;24606;51.992;4.198;2023-11-21T18:46:12;17.90;99.90
38854;DHT22;24606;51.992;4.198;2023-11-21T18:51:14;18.00;99.90
38854;DHT22;24606;51.992;4.198;2023-11-21T18:56:22;18.10;99.90
38854;DHT22;24606;51.992;4.198;2023-11-21T19:01:27;18.10;99.90
38854;DHT22;24606;51.992;4.198;2023-11-21T19:06:29;18.10;99.90
38854;DHT22;24606;51.992;4.198;2023-11-21T19:11:32;18.10;99.90
38854;DHT22;24606;51.992;4.198;2023-11-21T19:16:34;18.10;99.90
38854;DHT22;24606;51.992;4.198;2023-11-21T19:21:36;18.10;99.90
38854;DHT22;24606;51.992;4.198;2023-11-21T19:26:39;18.10;99.90
38854;DHT22;24606;51.992;4.198;2023-11-21T19:31:41;18.10;99.90
38854;DHT22;24606;51.992;4.198;2023-11-21T19:36:43;18.10;99.90
38854;DHT22;24606;51.992;4.198;2023-11-21T19:41:48;18.10;99.90
38854;DHT22;24606;51.992;4.198;2023-11-21T19:46:50;18.20;99.90
38854;DHT22;24606;51.992;4.198;2023-11-21T19:51:52;18.10;99.90
38854;DHT22;24606;51.992;4.198;2023-11-21T19:56:55;18.00;99.90
38854;DHT22;24606;51.992;4.198;2023-11-21T20:01:56;18.00;99.90
38854;DHT22;24606;51.992;4.198;2023-11-21T20:06:59;18.00;99.90
38854;DHT22;24606;51.992;4.198;2023-11-21T20:12:03;18.00;99.90
38854;DHT22;24606;51.992;4.198;2023-11-21T20:17:05;18.00;99.90
38854;DHT22;24606;51.992;4.198;2023-11-21T20:22:06;18.00;99.90
38854;DHT22;24606;51.992;4.198;2023-11-21T20:27:09;17.90;99.90
38854;DHT22;24606;51.992;4.198;2023-11-21T20:32:11;17.90;99.90
38854;DHT22;24606;51.992;4.198;2023-11-21T20:37:13;17.90;99.90
38854;DHT22;24606;51.992;4.198;2023-11-21T20:42:17;17.80;99.90
38854;DHT22;24606;51.992;4.198;2023-11-21T20:47:19;17.80;99.90
38854;DHT22;24606;51.992;4.198;2023-11-21T20:52:20;17.80;99.90
38854;DHT22;24606;51.992;4.198;2023-11-21T20:57:24;17.70;99.90
38854;DHT22;24606;51.992;4.198;2023-11-21T21:02:25;17.70;99.90
38854;DHT22;24606;51.992;4.198;2023-11-21T21:07:27;17.70;99.90
38854;DHT22;24606;51.992;4.198;2023-11-21T21:12:31;17.70;99.90
38854;DHT22;24606;51.992;4.198;2023-11-21T21:17:33;17.60;99.90
38854;DHT22;24606;51.992;4.198;2023-11-21T21:22:34;17.60;99.90
38854;DHT22;24606;51.992;4.198;2023-11-21T21:27:37;17.60;99.90
38854;DHT22;24606;51.992;4.198;2023-11-21T21:32:39;17.50;99.90
38854;DHT22;24606;51.992;4.198;2023-11-21T21:37:41;17.50;99.90
38854;DHT22;24606;51.992;4.198;2023-11-21T21:42:45;17.60;99.90
38854;DHT22;24606;51.992;4.198;2023-11-21T21:47:47;17.50;99.90
38854;DHT22;24606;51.992;4.198;2023-11-21T21:52:49;17.50;99.90
38854;DHT22;24606;51.992;4.198;2023-11-21T21:57:52;17.50;99.90
38854;DHT22;24606;51.992;4.198;2023-11-21T22:02:54;17.50;99.90
38854;DHT22;24606;51.992;4.198;2023-11-21T22:07:58;17.40;99.90
38854;DHT22;24606;51.992;4.198;2023-11-21T22:13:01;17.40;99.90
38854;DHT22;24606;51.992;4.198;2023-11-21T22:18:03;17.40;99.90
38854;DHT22;24606;51.992;4.198;2023-11-21T22:23:05;17.40;99.90
38854;DHT22;24606;51.992;4.198;2023-11-21T22:28:08;17.40;99.90
38854;DHT22;24606;51.992;4.198;2023-11-21T22:33:09;17.30;99.90
38854;DHT22;24606;51.992;4.198;2023-11-21T22:38:12;17.40;99.90
38854;DHT22;24606;51.992;4.198;2023-11-21T22:43:17;17.30;99.90
38854;DHT22;24606;51.992;4.198;2023-11-21T22:48:19;17.30;99.90
38854;DHT22;24606;51.992;4.198;2023-11-21T22:53:20;17.30;99.90
38854;DHT22;24606;51.992;4.198;2023-11-21T22:58:23;17.30;99.90
38854;DHT22;24606;51.992;4.198;2023-11-21T23:03:25;17.30;99.90
38854;DHT22;24606;51.992;4.198;2023-11-21T23:08:27;17.30;99.90
38854;DHT22;24606;51.992;4.198;2023-11-21T23:13:31;17.30;99.90
38854;DHT22;24606;51.992;4.198;2023-11-21T23:18:33;17.30;99.90
38854;DHT22;24606;51.992;4.198;2023-11-21T23:23:35;17.30;99.90
38854;DHT22;24606;51.992;4.198;2023-11-21T23:28:38;17.20;99.90
38854;DHT22;24606;51.992;4.198;2023-11-21T23:33:40;17.30;99.90
38854;DHT22;24606;51.992;4.198;2023-11-21T23:38:41;17.20;99.90
38854;DHT22;24606;51.992;4.198;2023-11-21T23:43:45;17.20;99.90
38854;DHT22;24606;51.992;4.198;2023-11-21T23:48:47;17.20;99.90
38854;DHT22;24606;51.992;4.198;2023-11-21T23:53:49;17.20;99.90
38854;DHT22;24606;51.992;4.198;2023-11-21T23:58:52;17.20;99.90
